Aviation Digital Data Service (ADDS)

Output produced by TAFs form (1916 UTC 21 April 2018)
found at http://aviationweather.gov/adds/tafs/
 
Forecast for: RJCK (KUSHIRO AIRPORT , JP)
Text: TAF RJCK 211711Z 2118/2300 36011KT 9999 FEW030
Forecast period: 1800 UTC 21 April 2018 to 0300 UTC 22 April 2018
Forecast type: FROM: standard forecast or significant change
Winds: from the N (360 degrees) at 13 MPH (11 knots; 5.7 m/s)
Visibility: 6 or more miles (10+ km)
Clouds: few clouds at 3000 feet AGL
Weather: no significant weather forecast for this period
Forecast for: RJCK (KUSHIRO AIRPORT , JP)
Text: TAF RJCK 211711Z 2118/2300 36011KT 9999 FEW030
Forecast period: 1800 UTC 21 April 2018 to 0300 UTC 22 April 2018
Forecast type: FROM: standard forecast or significant change
Winds: from the N (360 degrees) at 13 MPH (11 knots; 5.7 m/s)
Visibility: 6 or more miles (10+ km)
Clouds: few clouds at 3000 feet AGL
Weather: no significant weather forecast for this period
Forecast for: RJCK (KUSHIRO AIRPORT , JP)
Text: TAF RJCK 211711Z 2118/2300 36011KT 9999 FEW030
Forecast period: 0300 to 0900 UTC 22 April 2018
Forecast type: BECOMING: Conditions expected to become as follows by 0500 UTC 22 April 2018
Winds: from the SSW (200 degrees) at 21 MPH (18 knots; 9.4 m/s)
Visibility: 6 or more miles (10+ km)
Clouds: few clouds at 3000 feet AGL
Weather: no significant weather forecast for this period
Forecast for: RJCK (KUSHIRO AIRPORT , JP)
Text: TAF RJCK 211711Z 2118/2300 36011KT 9999 FEW030
Forecast period: 0300 to 0900 UTC 22 April 2018
Forecast type: BECOMING: Conditions expected to become as follows by 0500 UTC 22 April 2018
Winds: from the SSW (200 degrees) at 21 MPH (18 knots; 9.4 m/s)
Visibility: 6 or more miles (10+ km)
Clouds: few clouds at 3000 feet AGL
Weather: no significant weather forecast for this period
Forecast for: RJCK (KUSHIRO AIRPORT , JP)
Text: TAF RJCK 211711Z 2118/2300 36011KT 9999 FEW030
Forecast period: 0900 UTC 22 April 2018 to 0000 UTC 23 April 2018
Forecast type: BECOMING: Conditions expected to become as follows by 1200 UTC 22 April 2018
Winds: from the SSW (200 degrees) at 5 MPH (4 knots; 2.1 m/s)
Visibility: 6 or more miles (10+ km)
Clouds: few clouds at 3000 feet AGL
Weather: no significant weather forecast for this period
Forecast for: RJCK (KUSHIRO AIRPORT , JP)
Text: TAF RJCK 211711Z 2118/2300 36011KT 9999 FEW030
Forecast period: 0900 UTC 22 April 2018 to 0000 UTC 23 April 2018
Forecast type: BECOMING: Conditions expected to become as follows by 1200 UTC 22 April 2018
Winds: from the SSW (200 degrees) at 5 MPH (4 knots; 2.1 m/s)
Visibility: 6 or more miles (10+ km)
Clouds: few clouds at 3000 feet AGL
Weather: no significant weather forecast for this period
Forecast for: RJCK (KUSHIRO AIRPORT , JP)
Text: TAF RJCK 211711Z 2118/2300 36011KT 9999 FEW030
Forecast period: 1200 to 1800 UTC 22 April 2018
Forecast type: TEMPORARY: The following changes expected for less than half the time period
Ceiling: 800 feet AGL
Clouds: few clouds at 500 feet AGL
broken clouds at 800 feet AGL
Weather: no significant weather forecast for this period
Forecast for: RJCK (KUSHIRO AIRPORT , JP)
Text: TAF RJCK 211711Z 2118/2300 36011KT 9999 FEW030
Forecast period: 1200 to 1800 UTC 22 April 2018
Forecast type: TEMPORARY: The following changes expected for less than half the time period
Ceiling: 800 feet AGL
Clouds: few clouds at 500 feet AGL
broken clouds at 800 feet AGL
Weather: no significant weather forecast for this period